Time;durP1;ratioP1;P1;durP2;ratioP2;P2;SDS_P1;SDS_P2;PMS_P1;PMS_P2;Temp;Humidity;BMP_temperature;BMP_pressure;BME280_temperature;BME280_humidity;BME280_pressure;Samples;Min_cycle;Max_cycle;Signal;HPM_P1;HPM_P2
2023/05/15 05:01:50;;;;;;;;;;;;;;;15.04;72.18;96624.84;4229452;27;10396;-71
2023/05/15 05:03:53;;;;;;;;;;;;;;;15.34;71.75;96616.88;4200080;28;7684;-72
2023/05/15 05:05:56;;;;;;;;;;;;;;;15.56;71.28;96625.16;4211051;28;5776;-72
2023/05/15 05:07:59;;;;;;;;;;;;;;;15.72;70.85;96627.16;4214932;28;5703;-72
2023/05/15 05:10:03;;;;;;;;;;;;;;;15.86;70.55;96624.31;4212955;28;5648;-72
2023/05/15 05:12:07;;;;;;;;;;;;;;;15.96;70.37;96635.19;4201096;28;6038;-72
2023/05/15 05:14:09;;;;;;;;;;;;;;;16.03;70.05;96625.25;4211374;28;5813;-72
2023/05/15 05:16:12;;;;;;;;;;;;;;;16.10;69.95;96631.28;4210218;28;5731;-73
2023/05/15 05:18:17;;;;;;;;;;;;;;;16.17;69.66;96625.81;4214033;28;5750;-72
2023/05/15 05:20:19;;;;;;;;;;;;;;;16.23;69.53;96628.38;4211000;28;5802;-72
2023/05/15 05:22:22;;;;;;;;;;;;;;;16.31;69.38;96627.22;4213521;28;5378;-72
2023/05/15 05:24:25;;;;;;;;;;;;;;;16.33;69.06;96635.00;4213247;28;7692;-72
2023/05/15 05:26:28;;;;;;;;;;;;;;;16.36;69.17;96635.31;4184341;28;5673;-72
2023/05/15 05:28:31;;;;;;;;;;;;;;;16.40;69.03;96633.00;4209826;28;5817;-72
2023/05/15 05:30:34;;;;;;;;;;;;;;;16.44;68.79;96634.16;4213248;28;5639;-72
2023/05/15 05:32:37;;;;;;;;;;;;;;;16.46;68.64;96637.41;4213921;28;6526;-72
2023/05/15 05:34:41;;;;;;;;;;;;;;;16.50;68.66;96634.03;4214896;28;5698;-72
2023/05/15 05:36:45;;;;;;;;;;;;;;;16.52;68.61;96636.47;4213575;28;5627;-72
2023/05/15 05:38:48;;;;;;;;;;;;;;;16.50;68.46;96636.69;4205931;28;5862;-73
2023/05/15 05:40:51;;;;;;;;;;;;;;;16.52;68.32;96626.59;4214428;28;5687;-73
2023/05/15 05:42:53;;;;;;;;;;;;;;;16.54;68.30;96621.06;4212419;28;5702;-72
2023/05/15 05:44:56;;;;;;;;;;;;;;;16.58;68.21;96630.19;4212443;28;5604;-72
2023/05/15 05:46:59;;;;;;;;;;;;;;;16.60;68.17;96628.09;4211827;28;5647;-72
2023/05/15 05:49:03;;;;;;;;;;;;;;;16.64;67.71;96628.44;4209827;28;5823;-73
2023/05/15 05:51:07;;;;;;;;;;;;;;;16.67;67.86;96634.13;4212810;28;5635;-72
2023/05/15 05:53:10;;;;;;;;;;;;;;;16.68;67.78;96618.97;4214006;28;5644;-72
2023/05/15 05:55:13;;;;;;;;;;;;;;;16.68;67.76;96624.28;4214285;28;5726;-72
2023/05/15 05:57:15;;;;;;;;;;;;;;;16.70;67.69;96623.00;4214398;28;5628;-72
2023/05/15 05:59:18;;;;;;;;;;;;;;;16.75;67.59;96623.09;4214300;28;5640;-71
2023/05/15 06:01:22;;;;;;;;;;;;;;;16.77;67.57;96617.56;4210765;28;5639;-71
2023/05/15 06:03:25;;;;;;;;;;;;;;;16.81;67.49;96618.69;4203001;28;5807;-71
2023/05/15 06:05:28;;;;;;;;;;;;;;;16.84;67.27;96629.69;4202815;28;5694;-72
2023/05/15 06:07:32;;;;;;;;;;;;;;;16.90;67.15;96621.81;4202832;28;5806;-71
2023/05/15 06:09:35;;;;;;;;;;;;;;;16.90;67.16;96619.13;4203065;28;5798;-72
2023/05/15 06:11:38;;;;;;;;;;;;;;;16.92;67.00;96625.84;4202819;28;5703;-72
2023/05/15 06:13:42;;;;;;;;;;;;;;;16.98;66.99;96629.41;4202845;28;5627;-72
2023/05/15 06:15:46;;;;;;;;;;;;;;;17.05;67.04;96630.91;4202964;28;5631;-72
2023/05/15 06:17:49;;;;;;;;;;;;;;;17.12;66.83;96630.78;4202956;28;5619;-72
2023/05/15 06:19:52;;;;;;;;;;;;;;;17.17;66.82;96639.69;4202711;28;5706;-72
2023/05/15 06:21:55;;;;;;;;;;;;;;;17.22;66.60;96630.97;4202338;28;5748;-72
2023/05/15 06:23:59;;;;;;;;;;;;;;;17.27;66.37;96628.38;4202791;28;5631;-72
2023/05/15 06:26:03;;;;;;;;;;;;;;;17.27;66.43;96632.91;4202712;28;5624;-72
2023/05/15 06:28:06;;;;;;;;;;;;;;;17.27;66.09;96632.91;4202522;28;5706;-72
2023/05/15 06:30:10;;;;;;;;;;;;;;;17.29;66.14;96641.50;4202382;28;7028;-72
2023/05/15 06:32:13;;;;;;;;;;;;;;;17.28;66.08;96646.03;4202754;28;5686;-72
2023/05/15 06:34:16;;;;;;;;;;;;;;;17.29;66.07;96641.50;4202662;28;5741;-71
2023/05/15 06:36:26;;;;;;;;;;;;;;;17.27;66.10;96649.75;4202369;28;5691;-72
2023/05/15 06:38:29;;;;;;;;;;;;;;;17.26;66.03;96642.78;4202602;28;5782;-72
2023/05/15 06:40:33;;;;;;;;;;;;;;;17.25;65.78;96643.84;4202512;28;5695;-72
2023/05/15 06:42:37;;;;;;;;;;;;;;;17.27;65.75;96649.75;4202427;28;5699;-73
2023/05/15 06:44:40;;;;;;;;;;;;;;;17.26;65.75;96648.13;4202499;28;5702;-72
2023/05/15 06:46:43;;;;;;;;;;;;;;;17.28;65.67;96645.22;4202486;28;5758;-72
2023/05/15 06:48:46;;;;;;;;;;;;;;;17.30;65.66;96643.13;4202340;28;5803;-72
2023/05/15 06:50:50;;;;;;;;;;;;;;;17.31;65.58;96640.22;4202224;28;5687;-72
2023/05/15 06:52:56;;;;;;;;;;;;;;;17.36;65.50;96647.53;4202082;28;5781;-72
2023/05/15 06:54:59;;;;;;;;;;;;;;;17.38;65.29;96646.22;4202555;28;5703;-72
2023/05/15 06:57:03;;;;;;;;;;;;;;;17.39;65.23;96644.38;4202078;28;5601;-72
2023/05/15 06:59:06;;;;;;;;;;;;;;;17.40;65.02;96641.44;4202220;28;7722;-72
2023/05/15 07:01:09;;;;;;;;;;;;;;;17.41;65.16;96640.41;4201700;28;5699;-72
2023/05/15 07:03:15;;;;;;;;;;;;;;;17.45;65.10;96641.56;4202175;28;5686;-72
2023/05/15 07:05:18;;;;;;;;;;;;;;;17.47;64.79;96641.31;4202080;28;5742;-72
2023/05/15 07:07:22;;;;;;;;;;;;;;;17.49;64.95;96638.41;4202072;28;5691;-71
2023/05/15 07:09:25;;;;;;;;;;;;;;;17.50;64.73;96640.00;4202007;28;5702;-72
2023/05/15 07:11:28;;;;;;;;;;;;;;;17.54;64.70;96631.25;4202119;28;5695;-72
2023/05/15 07:13:32;;;;;;;;;;;;;;;17.62;64.57;96635.41;4201047;28;5686;-72
2023/05/15 07:15:35;;;;;;;;;;;;;;;17.66;64.50;96636.53;4202201;28;5797;-72
2023/05/15 07:17:38;;;;;;;;;;;;;;;17.70;64.58;96629.72;4201958;28;5780;-72
2023/05/15 07:19:41;;;;;;;;;;;;;;;17.73;64.23;96632.69;4201997;28;5690;-72
2023/05/15 07:21:44;;;;;;;;;;;;;;;17.73;64.26;96630.03;4201561;28;5691;-72
2023/05/15 07:23:48;;;;;;;;;;;;;;;17.73;64.34;96637.25;4201691;28;5813;-72
2023/05/15 07:25:53;;;;;;;;;;;;;;;17.78;64.24;96641.84;4201940;28;5824;-72
2023/05/15 07:27:56;;;;;;;;;;;;;;;17.81;64.23;96642.19;4201640;28;5687;-72
2023/05/15 07:30:02;;;;;;;;;;;;;;;17.84;64.06;96643.56;4201769;28;5777;-72
2023/05/15 07:32:05;;;;;;;;;;;;;;;17.88;64.03;96640.16;4201871;28;6400;-72
2023/05/15 07:34:09;;;;;;;;;;;;;;;17.91;63.92;96639.69;4201792;28;5826;-72
2023/05/15 07:36:12;;;;;;;;;;;;;;;17.91;63.88;96636.19;4201338;28;5702;-72
2023/05/15 07:38:15;;;;;;;;;;;;;;;17.93;63.70;96637.56;4201589;28;5703;-72
2023/05/15 07:40:18;;;;;;;;;;;;;;;17.91;63.75;96634.34;4201570;28;5764;-72
2023/05/15 07:42:21;;;;;;;;;;;;;;;17.88;63.59;96634.00;4201153;28;5711;-72
2023/05/15 07:44:23;;;;;;;;;;;;;;;17.87;63.50;96629.69;4201493;28;5706;-72
2023/05/15 07:46:28;;;;;;;;;;;;;;;17.83;63.52;96634.72;4200380;28;5805;-72
2023/05/15 07:48:31;;;;;;;;;;;;;;;17.82;63.54;96637.66;4201546;28;5702;-72
2023/05/15 07:50:34;;;;;;;;;;;;;;;17.78;63.64;96632.00;4201346;28;5687;-72
2023/05/15 07:52:36;;;;;;;;;;;;;;;17.75;63.64;96635.13;4200822;28;7133;-72
2023/05/15 07:54:40;;;;;;;;;;;;;;;17.72;63.81;96633.75;4201359;28;5839;-72
2023/05/15 07:56:43;;;;;;;;;;;;;;;17.69;63.35;96633.44;4201244;28;5715;-72
2023/05/15 07:58:46;;;;;;;;;;;;;;;17.69;63.65;96636.13;4201376;28;5703;-73
2023/05/15 08:00:49;;;;;;;;;;;;;;;17.70;63.56;96625.16;4201075;28;5766;-73
2023/05/15 08:02:53;;;;;;;;;;;;;;;17.72;63.31;96628.41;4201137;28;6381;-73
2023/05/15 08:04:56;;;;;;;;;;;;;;;17.74;63.39;96623.63;4201180;28;6141;-73
2023/05/15 08:06:59;;;;;;;;;;;;;;;17.78;62.98;96628.47;4200774;28;5647;-73
2023/05/15 08:09:04;;;;;;;;;;;;;;;17.78;63.31;96623.97;4200917;28;6309;-73
2023/05/15 08:11:06;;;;;;;;;;;;;;;17.78;63.10;96618.63;4201150;28;5628;-73
2023/05/15 08:13:09;;;;;;;;;;;;;;;17.77;63.01;96616.16;4201123;28;5635;-73
2023/05/15 08:15:14;;;;;;;;;;;;;;;17.75;63.08;96617.22;4201055;28;5822;-72
2023/05/15 08:17:17;;;;;;;;;;;;;;;17.73;62.90;96615.84;4201163;28;5063;-72
2023/05/15 08:19:22;;;;;;;;;;;;;;;17.74;62.94;96612.13;4201145;28;5080;-73
2023/05/15 08:21:25;;;;;;;;;;;;;;;17.73;63.07;96607.81;4200614;28;5702;-73
2023/05/15 08:23:28;;;;;;;;;;;;;;;17.72;62.97;96614.22;4200988;28;5817;-74
2023/05/15 08:25:31;;;;;;;;;;;;;;;17.71;63.04;96612.63;4200639;28;5777;-72
2023/05/15 08:27:35;;;;;;;;;;;;;;;17.69;63.09;96609.38;4200779;28;5699;-72
2023/05/15 08:29:38;;;;;;;;;;;;;;;17.66;62.94;96612.47;4200837;28;5691;-72
2023/05/15 08:31:41;;;;;;;;;;;;;;;17.64;62.89;96617.25;4200374;28;5698;-72
2023/05/15 08:33:44;;;;;;;;;;;;;;;17.64;62.84;96610.06;4200877;28;5699;-72
2023/05/15 08:35:54;;;;;;;;;;;;;;;17.66;62.78;96609.81;4200841;28;5679;-73
2023/05/15 08:37:57;;;;;;;;;;;;;;;17.67;62.62;96609.59;4200746;28;5722;-72
2023/05/15 08:40:00;;;;;;;;;;;;;;;17.69;62.74;96620.06;4200844;28;5699;-72
2023/05/15 08:42:09;;;;;;;;;;;;;;;17.66;62.79;96618.63;4200673;28;5782;-73
2023/05/15 08:44:14;;;;;;;;;;;;;;;17.69;62.47;96620.06;4200761;28;5707;-73
2023/05/15 08:46:20;;;;;;;;;;;;;;;17.72;62.31;96619.56;4200959;28;5877;-73
2023/05/15 08:48:29;;;;;;;;;;;;;;;17.71;62.41;96623.31;4200819;28;6423;-73
2023/05/15 08:50:33;;;;;;;;;;;;;;;17.68;62.40;96623.75;4200540;28;5695;-72
2023/05/15 08:52:41;;;;;;;;;;;;;;;17.66;62.35;96620.50;4200482;28;5691;-72
2023/05/15 08:54:46;;;;;;;;;;;;;;;17.66;62.10;96618.63;4200780;28;5686;-72
2023/05/15 08:56:50;;;;;;;;;;;;;;;17.63;62.21;96615.66;4200890;28;5699;-72
2023/05/15 08:58:53;;;;;;;;;;;;;;;17.63;62.08;96615.66;4200890;28;5695;-72
2023/05/15 09:00:57;;;;;;;;;;;;;;;17.66;61.93;96609.81;4200543;28;5694;-72
2023/05/15 09:03:00;;;;;;;;;;;;;;;17.64;61.88;96602.03;4200566;28;5812;-72
2023/05/15 09:05:08;;;;;;;;;;;;;;;17.67;61.67;96608.78;4201015;28;5941;-72
2023/05/15 09:07:11;;;;;;;;;;;;;;;17.65;61.86;96597.50;4200331;28;5867;-72
2023/05/15 09:09:18;;;;;;;;;;;;;;;17.64;61.78;96595.88;4200606;28;5695;-72
2023/05/15 09:11:24;;;;;;;;;;;;;;;17.65;61.77;96592.16;4200586;28;5687;-72
2023/05/15 09:13:27;;;;;;;;;;;;;;;17.66;61.70;96583.06;4200425;28;5711;-72
2023/05/15 09:15:30;;;;;;;;;;;;;;;17.66;61.65;96585.75;4200478;28;5707;-73
2023/05/15 09:17:33;;;;;;;;;;;;;;;17.67;61.58;96584.72;4200393;28;5686;-71
2023/05/15 09:19:39;;;;;;;;;;;;;;;17.67;61.59;96582.06;4200313;28;5509;-72
2023/05/15 09:21:42;;;;;;;;;;;;;;;17.67;61.42;96577.50;4200176;28;7739;-72
2023/05/15 09:23:45;;;;;;;;;;;;;;;17.69;61.64;96571.94;4200567;28;5695;-73
2023/05/15 09:25:52;;;;;;;;;;;;;;;17.73;61.66;96573.06;4200721;28;5766;-72
2023/05/15 09:27:55;;;;;;;;;;;;;;;17.77;61.52;96566.19;4200542;28;5690;-72
2023/05/15 09:30:09;;;;;;;;;;;;;;;17.76;61.43;96564.56;4200552;28;5695;-73
2023/05/15 09:32:14;;;;;;;;;;;;;;;17.77;61.44;96576.88;4200595;28;5708;-72
2023/05/15 09:34:19;;;;;;;;;;;;;;;17.77;61.39;96573.38;4200666;28;5703;-72
2023/05/15 09:36:22;;;;;;;;;;;;;;;17.80;61.54;96571.06;4200324;28;5770;-73
2023/05/15 09:38:25;;;;;;;;;;;;;;;17.77;61.35;96563.50;4203614;28;5690;-72
2023/05/15 09:40:30;;;;;;;;;;;;;;;17.76;61.54;96561.88;4203458;28;6330;-73
2023/05/15 09:42:35;;;;;;;;;;;;;;;17.71;61.35;96559.94;4203079;28;5786;-73
2023/05/15 09:44:42;;;;;;;;;;;;;;;17.71;61.26;96557.28;4203390;28;5663;-72
2023/05/15 09:46:46;;;;;;;;;;;;;;;17.74;61.41;96553.31;4202916;28;5805;-72
2023/05/15 09:48:53;;;;;;;;;;;;;;;17.78;61.18;96556.28;4202298;28;5679;-72
2023/05/15 09:50:57;;;;;;;;;;;;;;;17.81;61.11;96553.16;4202876;28;5643;-72
2023/05/15 09:53:00;;;;;;;;;;;;;;;17.86;60.93;96553.22;4203299;28;5636;-73
2023/05/15 09:55:03;;;;;;;;;;;;;;;17.86;60.71;96543.31;4203209;28;5752;-73
2023/05/15 09:57:11;;;;;;;;;;;;;;;17.86;60.31;96543.31;4202836;28;5710;-73
2023/05/15 09:59:17;;;;;;;;;;;;;;;17.88;60.51;96549.22;4202657;28;5905;-72
2023/05/15 10:01:21;;;;;;;;;;;;;;;17.89;60.41;96556.19;4201991;28;5835;-73
2023/05/15 10:03:24;;;;;;;;;;;;;;;17.84;60.32;96558.00;4202914;28;6354;-73
2023/05/15 10:05:27;;;;;;;;;;;;;;;17.79;60.33;96561.41;4203185;28;5077;-73
2023/05/15 10:07:45;;;;;;;;;;;;;;;17.72;60.32;96552.75;4202710;28;5636;-73
2023/05/15 10:09:47;;;;;;;;;;;;;;;17.74;60.43;96556.78;4202855;28;5628;-73
2023/05/15 10:11:51;;;;;;;;;;;;;;;17.73;60.38;96557.84;4202849;28;5192;-73
2023/05/15 10:13:54;;;;;;;;;;;;;;;17.74;60.24;96559.47;4202844;28;7691;-72
2023/05/15 10:16:00;;;;;;;;;;;;;;;17.78;60.22;96558.97;4202830;28;5778;-73
2023/05/15 10:18:04;;;;;;;;;;;;;;;17.82;60.05;96560.91;4202938;28;5660;-73
2023/05/15 10:20:08;;;;;;;;;;;;;;;17.81;60.14;96553.97;4202559;28;5636;-72
2023/05/15 10:22:12;;;;;;;;;;;;;;;17.77;59.95;96555.47;4202743;28;5763;-72
2023/05/15 10:24:19;;;;;;;;;;;;;;;17.71;60.02;96551.13;4202455;28;5632;-73
2023/05/15 10:26:28;;;;;;;;;;;;;;;17.71;59.98;96548.44;4202335;28;7184;-72
2023/05/15 10:28:32;;;;;;;;;;;;;;;17.71;60.09;96549.25;4202404;28;5695;-72
2023/05/15 10:30:36;;;;;;;;;;;;;;;17.70;59.93;96547.66;4202676;28;5696;-73
2023/05/15 10:32:41;;;;;;;;;;;;;;;17.74;59.91;96537.25;4202414;28;5654;-72
2023/05/15 10:34:45;;;;;;;;;;;;;;;17.79;59.94;96534.69;4202735;28;5643;-73
2023/05/15 10:36:49;;;;;;;;;;;;;;;17.80;59.74;96528.28;4202191;28;5901;-72
2023/05/15 10:38:52;;;;;;;;;;;;;;;17.82;59.93;96526.16;4202543;28;5714;-73
2023/05/15 10:40:58;;;;;;;;;;;;;;;17.84;59.64;96521.38;4202547;28;5687;-73
2023/05/15 10:43:20;;;;;;;;;;;;;;;17.84;59.78;96516.03;4202278;28;5773;-72
2023/05/15 10:45:23;;;;;;;;;;;;;;;17.83;59.95;96510.94;4202383;28;6105;-72
2023/05/15 10:47:26;;;;;;;;;;;;;;;17.83;59.87;96509.06;4202290;28;5703;-72
2023/05/15 10:49:31;;;;;;;;;;;;;;;17.85;59.73;96511.47;4202075;28;5612;-72
2023/05/15 10:51:35;;;;;;;;;;;;;;;17.91;59.67;96510.50;4202156;28;5687;-72
2023/05/15 10:53:38;;;;;;;;;;;;;;;17.93;59.85;96514.56;4202268;28;6377;-72
2023/05/15 10:55:41;;;;;;;;;;;;;;;17.94;59.73;96510.81;4202124;28;5631;-72
2023/05/15 10:57:45;;;;;;;;;;;;;;;17.99;59.79;96502.84;4202197;28;5650;-72
2023/05/15 10:59:48;;;;;;;;;;;;;;;18.07;59.73;96501.63;4201283;28;5774;-72
2023/05/15 11:01:51;;;;;;;;;;;;;;;18.10;59.72;96487.75;4168745;28;5725;-72
2023/05/15 11:04:13;;;;;;;;;;;;;;;18.13;59.74;96486.47;4168885;28;5845;-72
2023/05/15 11:06:31;;;;;;;;;;;;;;;18.16;59.77;96480.63;4168960;28;5840;-72
2023/05/15 11:08:34;;;;;;;;;;;;;;;18.22;59.59;96480.41;4169024;28;5733;-72
2023/05/15 11:10:38;;;;;;;;;;;;;;;18.25;59.95;96479.13;4168696;28;5725;-72
2023/05/15 11:12:57;;;;;;;;;;;;;;;18.24;59.93;96472.16;4168682;28;5717;-72
2023/05/15 11:15:21;;;;;;;;;;;;;;;18.21;59.99;96470.78;4167691;28;5730;-72
2023/05/15 11:17:24;;;;;;;;;;;;;;;18.21;59.79;96469.97;4165683;28;5737;-72
2023/05/15 11:19:47;;;;;;;;;;;;;;;18.20;59.88;96463.00;4168668;28;5729;-72
2023/05/15 11:21:56;;;;;;;;;;;;;;;18.22;60.10;96466.22;4159427;28;5745;-72
2023/05/15 11:24:04;;;;;;;;;;;;;;;18.28;60.04;96465.25;4168937;28;5733;-72
2023/05/15 11:26:08;;;;;;;;;;;;;;;18.38;59.80;96462.69;4168653;28;5742;-72
2023/05/15 11:28:21;;;;;;;;;;;;;;;18.47;59.61;96455.03;4168234;28;5846;-72
2023/05/15 11:30:35;;;;;;;;;;;;;;;18.55;59.76;96446.53;4168928;28;5865;-72
2023/05/15 11:33:00;;;;;;;;;;;;;;;18.59;59.36;96436.97;4168648;28;5828;-72
2023/05/15 11:35:03;;;;;;;;;;;;;;;18.61;59.33;96438.31;4162450;28;5757;-72
2023/05/15 11:37:16;;;;;;;;;;;;;;;18.61;58.95;96443.66;4168222;28;5744;-72
2023/05/15 11:39:23;;;;;;;;;;;;;;;18.61;59.12;96454.38;4168429;28;5973;-73
2023/05/15 11:41:31;;;;;;;;;;;;;;;18.59;58.70;96450.34;4167280;28;7897;-73
2023/05/15 11:43:35;;;;;;;;;;;;;;;18.60;58.73;96455.44;4165144;28;5916;-73
2023/05/15 11:45:40;;;;;;;;;;;;;;;18.61;58.39;96451.69;4167098;28;5820;-73
2023/05/15 11:47:44;;;;;;;;;;;;;;;18.61;58.35;96449.03;4168094;28;5758;-72
2023/05/15 11:49:49;;;;;;;;;;;;;;;18.66;58.29;96442.13;4166799;28;5730;-73
2023/05/15 11:51:52;;;;;;;;;;;;;;;18.71;57.98;96444.88;4164608;28;6072;-73
2023/05/15 11:53:58;;;;;;;;;;;;;;;18.76;57.97;96444.91;4159533;28;5940;-73
2023/05/15 11:56:00;;;;;;;;;;;;;;;18.77;57.68;96458.03;4166893;28;5105;-73
2023/05/15 11:58:04;;;;;;;;;;;;;;;18.77;57.42;96454.56;4165604;28;5733;-72
2023/05/15 12:00:11;;;;;;;;;;;;;;;18.74;57.36;96460.41;4169980;28;5843;-72
2023/05/15 12:02:14;;;;;;;;;;;;;;;18.72;57.36;96463.34;4186180;28;5642;-72
2023/05/15 12:04:18;;;;;;;;;;;;;;;18.72;57.58;96451.84;4192740;28;5708;-72
2023/05/15 12:06:21;;;;;;;;;;;;;;;18.77;57.49;96457.22;4184063;28;5072;-72
2023/05/15 12:08:25;;;;;;;;;;;;;;;18.82;57.30;96449.25;4190419;28;5066;-72
2023/05/15 12:10:30;;;;;;;;;;;;;;;18.84;57.24;96460.53;4193118;28;5706;-72
2023/05/15 12:12:35;;;;;;;;;;;;;;;18.84;57.02;96461.34;4197858;28;5628;-72
2023/05/15 12:14:40;;;;;;;;;;;;;;;18.85;57.05;96456.78;4171993;28;5657;-72
2023/05/15 12:16:43;;;;;;;;;;;;;;;18.84;56.58;96455.97;4188628;28;5691;-72
2023/05/15 12:18:47;;;;;;;;;;;;;;;18.84;56.77;96450.63;4196138;28;5086;-72
2023/05/15 12:20:52;;;;;;;;;;;;;;;18.85;56.45;96451.44;4195251;28;5837;-72
2023/05/15 12:22:58;;;;;;;;;;;;;;;18.88;56.29;96453.59;4188931;28;5620;-72
2023/05/15 12:25:01;;;;;;;;;;;;;;;18.92;56.16;96457.41;4193242;28;5873;-73
2023/05/15 12:27:06;;;;;;;;;;;;;;;18.93;56.18;96452.84;4189696;28;5828;-73
2023/05/15 12:29:09;;;;;;;;;;;;;;;18.89;56.04;96453.34;4196104;28;5819;-73
2023/05/15 12:31:12;;;;;;;;;;;;;;;18.87;55.76;96460.00;4190239;28;5713;-73
2023/05/15 12:33:19;;;;;;;;;;;;;;;18.84;55.65;96457.84;4189509;28;5727;-73
2023/05/15 12:35:22;;;;;;;;;;;;;;;18.84;55.61;96455.16;4195220;28;5733;-73
2023/05/15 12:37:25;;;;;;;;;;;;;;;18.80;55.54;96454.03;4191303;28;5728;-73
2023/05/15 12:39:28;;;;;;;;;;;;;;;18.79;55.35;96450.56;4192612;28;6004;-73
2023/05/15 12:41:37;;;;;;;;;;;;;;;18.78;55.33;96453.50;4187328;28;7381;-72
2023/05/15 12:43:41;;;;;;;;;;;;;;;18.78;55.12;96453.50;4198154;28;5735;-72
2023/05/15 12:45:44;;;;;;;;;;;;;;;18.83;55.13;96461.59;4183574;28;5707;-72
2023/05/15 12:47:50;;;;;;;;;;;;;;;18.86;54.74;96456.53;4188050;28;5652;-72
2023/05/15 12:49:56;;;;;;;;;;;;;;;18.89;54.78;96455.19;4193437;28;5817;-72
2023/05/15 12:52:07;;;;;;;;;;;;;;;18.92;54.37;96460.06;4195893;28;5624;-73
2023/05/15 12:54:17;;;;;;;;;;;;;;;18.92;54.37;96462.75;4195576;28;5734;-73
2023/05/15 12:56:23;;;;;;;;;;;;;;;18.91;54.42;96466.47;4189519;28;5737;-72
2023/05/15 12:58:26;;;;;;;;;;;;;;;18.85;54.31;96476.34;4194630;28;5715;-72
2023/05/15 13:00:31;;;;;;;;;;;;;;;18.82;54.37;96479.53;4189667;28;5830;-72
2023/05/15 13:02:34;;;;;;;;;;;;;;;18.80;54.57;96478.97;4192697;28;6405;-72
2023/05/15 13:04:37;;;;;;;;;;;;;;;18.76;54.47;96485.88;4192093;28;5871;-72
2023/05/15 13:06:40;;;;;;;;;;;;;;;18.77;54.50;96489.38;4196409;28;5837;-72
2023/05/15 13:08:49;;;;;;;;;;;;;;;18.74;54.43;96484.53;4189882;28;6248;-72
2023/05/15 13:10:57;;;;;;;;;;;;;;;18.71;54.61;96493.06;4192857;28;5639;-72
2023/05/15 13:13:00;;;;;;;;;;;;;;;18.69;54.76;96497.84;4194955;28;5827;-72
2023/05/15 13:15:04;;;;;;;;;;;;;;;18.66;54.88;96506.38;4188939;28;5624;-72
2023/05/15 13:17:08;;;;;;;;;;;;;;;18.62;55.13;96501.50;4193019;28;5663;-72
2023/05/15 13:19:11;;;;;;;;;;;;;;;18.58;55.10;96505.75;4198115;28;5628;-72
2023/05/15 13:21:14;;;;;;;;;;;;;;;18.47;54.99;96501.34;4203564;28;5616;-72
2023/05/15 13:23:19;;;;;;;;;;;;;;;18.37;55.22;96495.88;4203333;28;5721;-72
2023/05/15 13:25:22;;;;;;;;;;;;;;;18.30;55.30;96497.91;4202257;28;5619;-72
2023/05/15 13:27:26;;;;;;;;;;;;;;;18.19;55.40;96504.19;4200551;28;5730;-72
2023/05/15 13:29:28;;;;;;;;;;;;;;;18.02;55.19;96504.25;4195454;28;5651;-73
2023/05/15 13:31:32;;;;;;;;;;;;;;;17.82;55.52;96494.06;4201996;28;5634;-72
2023/05/15 13:33:36;;;;;;;;;;;;;;;17.70;55.71;96494.19;4201272;28;5742;-72
2023/05/15 13:35:40;;;;;;;;;;;;;;;17.66;56.01;96492.19;4199934;28;5703;-72
2023/05/15 13:37:43;;;;;;;;;;;;;;;17.65;56.09;96483.34;4198936;28;5643;-72
2023/05/15 13:39:46;;;;;;;;;;;;;;;17.69;55.95;96483.72;4202813;28;5855;-73
2023/05/15 13:41:49;;;;;;;;;;;;;;;17.68;55.82;96474.06;4203306;28;5695;-72
2023/05/15 13:43:52;;;;;;;;;;;;;;;17.74;55.65;96467.75;4203555;28;5828;-72
2023/05/15 13:45:54;;;;;;;;;;;;;;;17.84;55.66;96454.53;4202597;28;5702;-72
2023/05/15 13:47:57;;;;;;;;;;;;;;;17.89;55.58;96454.56;4200208;28;5836;-73
2023/05/15 13:50:02;;;;;;;;;;;;;;;17.98;55.67;96458.44;4198967;28;5640;-72
2023/05/15 13:52:06;;;;;;;;;;;;;;;18.06;55.51;96453.72;4198491;28;6523;-72
2023/05/15 13:54:09;;;;;;;;;;;;;;;18.09;55.49;96453.22;4189771;28;5776;-73
2023/05/15 13:56:12;;;;;;;;;;;;;;;18.15;55.52;96452.25;4199511;28;5883;-73
2023/05/15 13:58:15;;;;;;;;;;;;;;;18.18;55.63;96446.41;4198391;28;5785;-73
2023/05/15 14:00:19;;;;;;;;;;;;;;;18.21;55.52;96440.53;4197520;28;5720;-73
2023/05/15 14:02:25;;;;;;;;;;;;;;;18.27;55.55;96447.56;4200784;28;5612;-73
2023/05/15 14:04:28;;;;;;;;;;;;;;;18.31;55.49;96449.50;4199571;28;5643;-73
2023/05/15 14:06:32;;;;;;;;;;;;;;;18.32;55.53;96445.75;4200086;28;5648;-73
2023/05/15 14:08:38;;;;;;;;;;;;;;;18.36;55.65;96453.31;4201738;28;5639;-73
2023/05/15 14:10:41;;;;;;;;;;;;;;;18.39;55.62;96452.78;4200107;28;5643;-73
2023/05/15 14:12:45;;;;;;;;;;;;;;;18.42;55.64;96444.25;4202376;28;5664;-73
2023/05/15 14:14:49;;;;;;;;;;;;;;;18.48;55.76;96451.28;4201913;28;6249;-72
2023/05/15 14:16:52;;;;;;;;;;;;;;;18.49;55.84;96451.03;4202266;28;6474;-73
2023/05/15 14:18:55;;;;;;;;;;;;;;;18.51;55.91;96443.56;4201358;28;5698;-73
2023/05/15 14:20:58;;;;;;;;;;;;;;;18.51;55.97;96456.94;4200285;28;5081;-73
2023/05/15 14:23:02;;;;;;;;;;;;;;;18.50;56.22;96454.53;4201296;28;5690;-72
2023/05/15 14:25:07;;;;;;;;;;;;;;;18.48;56.34;96454.78;4200955;28;5132;-73
2023/05/15 14:27:13;;;;;;;;;;;;;;;18.47;55.98;96463.88;4197508;28;6432;-73
2023/05/15 14:29:16;;;;;;;;;;;;;;;18.47;56.17;96460.38;4201168;28;5744;-73
2023/05/15 14:31:19;;;;;;;;;;;;;;;18.45;56.12;96463.28;4201087;28;5655;-73
2023/05/15 14:33:21;;;;;;;;;;;;;;;18.45;56.43;96462.47;4198424;28;5617;-74
2023/05/15 14:35:25;;;;;;;;;;;;;;;18.45;56.80;96457.13;4185316;28;5848;-73
2023/05/15 14:37:28;;;;;;;;;;;;;;;18.44;56.46;96459.00;4201851;28;5781;-73
2023/05/15 14:39:32;;;;;;;;;;;;;;;18.44;56.58;96458.19;4200346;28;5770;-74
2023/05/15 14:41:35;;;;;;;;;;;;;;;18.41;56.58;96456.03;4198015;28;5773;-73
2023/05/15 14:43:38;;;;;;;;;;;;;;;18.37;56.50;96455.72;4193398;28;5445;-73
2023/05/15 14:45:41;;;;;;;;;;;;;;;18.38;56.76;96457.34;4195500;28;7708;-74
2023/05/15 14:47:44;;;;;;;;;;;;;;;18.38;56.74;96457.34;4198148;28;5159;-73
2023/05/15 14:49:47;;;;;;;;;;;;;;;18.38;56.83;96462.69;4194942;28;5861;-74
2023/05/15 14:51:50;;;;;;;;;;;;;;;18.38;57.14;96459.22;4192837;28;5774;-72
2023/05/15 14:53:53;;;;;;;;;;;;;;;18.37;56.94;96461.06;4191110;28;5643;-72
2023/05/15 14:55:57;;;;;;;;;;;;;;;18.39;56.86;96461.63;4185988;28;5844;-72
2023/05/15 14:58:01;;;;;;;;;;;;;;;18.40;56.75;96463.25;4195930;28;5730;-73
2023/05/15 15:00:05;;;;;;;;;;;;;;;18.42;56.94;96468.34;4187129;28;5911;-73
2023/05/15 15:02:09;;;;;;;;;;;;;;;18.43;56.83;96464.59;4189869;28;5679;-73
2023/05/15 15:04:12;;;;;;;;;;;;;;;18.45;56.36;96463.28;4196743;28;5117;-74
2023/05/15 15:06:15;;;;;;;;;;;;;;;18.47;56.45;96461.19;4197763;28;5734;-71
2023/05/15 15:08:18;;;;;;;;;;;;;;;18.49;56.41;96464.41;4198415;28;5718;-72
2023/05/15 15:10:21;;;;;;;;;;;;;;;18.49;56.36;96475.13;4194572;28;5722;-72
2023/05/15 15:12:26;;;;;;;;;;;;;;;18.50;56.01;96468.72;4190676;28;5858;-72
2023/05/15 15:14:29;;;;;;;;;;;;;;;18.51;56.29;96472.19;4195756;28;5668;-72
2023/05/15 15:16:33;;;;;;;;;;;;;;;18.50;56.22;96475.94;4194411;28;5628;-72
2023/05/15 15:18:36;;;;;;;;;;;;;;;18.50;56.03;96474.06;4188338;28;5793;-73
2023/05/15 15:20:41;;;;;;;;;;;;;;;18.51;56.02;96473.00;4193038;28;5643;-72
2023/05/15 15:22:44;;;;;;;;;;;;;;;18.50;55.93;96468.72;4190117;28;5624;-73
2023/05/15 15:24:47;;;;;;;;;;;;;;;18.51;55.78;96472.19;4191709;28;6939;-73
2023/05/15 15:26:50;;;;;;;;;;;;;;;18.47;56.00;96477.25;4194889;28;5841;-73
2023/05/15 15:28:59;;;;;;;;;;;;;;;18.46;56.23;96474.81;4195744;28;5818;-73
2023/05/15 15:31:02;;;;;;;;;;;;;;;18.43;56.04;96480.66;4194049;28;5628;-73
2023/05/15 15:33:05;;;;;;;;;;;;;;;18.44;56.56;96492.97;4197581;28;5785;-74
2023/05/15 15:35:09;;;;;;;;;;;;;;;18.39;56.33;96496.41;4192625;28;5718;-73
2023/05/15 15:37:12;;;;;;;;;;;;;;;18.25;56.47;96485.28;4192941;28;5639;-73
2023/05/15 15:39:15;;;;;;;;;;;;;;;18.22;56.27;96491.13;4195479;28;5802;-73
2023/05/15 15:41:20;;;;;;;;;;;;;;;18.14;56.14;96482.72;4194399;28;5737;-73
2023/05/15 15:43:23;;;;;;;;;;;;;;;18.01;56.04;96486.59;4194351;28;5612;-72
2023/05/15 15:45:28;;;;;;;;;;;;;;;17.99;55.99;96478.78;4178824;28;6063;-72
2023/05/15 15:47:31;;;;;;;;;;;;;;;18.04;55.61;96478.06;4190828;28;5745;-73
2023/05/15 15:49:34;;;;;;;;;;;;;;;18.07;55.35;96474.88;4197659;28;5110;-73
2023/05/15 15:51:37;;;;;;;;;;;;;;;18.06;55.25;96475.13;4195941;28;6550;-73
2023/05/15 15:53:40;;;;;;;;;;;;;;;18.08;55.16;96478.38;4195929;28;5763;-73
2023/05/15 15:55:45;;;;;;;;;;;;;;;18.13;54.94;96481.13;4197130;28;5735;-73
2023/05/15 15:57:49;;;;;;;;;;;;;;;18.18;54.86;96473.16;4195892;28;6491;-72